Airfield :
LOGIN :

Register | Disclaimer

   EN    FR    IT 

 










Legend :    VFR   Marginal VFR   IFR   Intensive IFR   Very Intensive IFR
Visi :
Ceiling :
>= 8 km
>= 3000ft
5 to 8 km
1000 to 3000 ft
1500m to 5 km
500 to 1000 ft
800 to 1500m
200 to 500 ft
< 800m
< 200 ft
Symbols :   Thunderstorms  Fog  Heavy snow  Heavy precipitations  Wind > 20 kt
SIGMETs :     Misc.  Thunderstorms  Icing  Turbulence  Mountain Waves  Volcanic Ashes






- Airport Elevation : 526 ft
- IATA code : LTN


EGGW - London Luton

CURRENT METAR :
  • 261520Z AUTO 19010KT 150V210 9999 -RA BKN009 OVC016 05/05 Q1006

EXPIRED METARs :
  • 261450Z AUTO 20011KT 9999 -RA BKN012 OVC025 05/05 Q1006
  • 261420Z AUTO 19012KT 160V220 9999 BKN014 OVC022 05/05 Q1007
  • 261350Z AUTO 19011KT 9999 BKN016 OVC021 05/05 Q1007
  • 261320Z AUTO 19010KT 160V220 9999 OVC016 05/05 Q1007
  • 261250Z AUTO 19011KT 9999 BKN014 05/05 Q1008

TAF TAF EGGW
Valid from the 26 at 12:00 until the 27 at 12:00 UTC


261057Z 2612/2712 20010KT 9999 SCT015
BECMG 2612/2615 BKN008
TEMPO 2613/2619 6000 RA BKN004
TEMPO 2619/2706 3000 BR BKN003
PROB30
TEMPO 2619/2706 SCT015
BECMG 2706/2709 SCT025
ATIS : +44 1582 395 204



MET'MAP, your aeronautical weather chart ! - Copyright ORBIFLY December 2007 - Disclaimer

ORBIFLY MET'MAP TEAM :

Programming & Development : Alexandra Zaïnal
Concept & original design : Baudouin d'Aumeries
Assistance for programming : Marc-Olivier Méhu
Technical & hardware support : Manuel Goepfert

Contact : metmap@orbifly.com




SOURCES & CREDITS :

   NOAA